sensor_id;sensor_type;location;lat;lon;timestamp;P1;durP1;ratioP1;P2;durP2;ratioP2
48040;SDS011;33815;48.386;11.738;2023-08-21T00:00:54;8.38;;;7.47;;
48040;SDS011;33815;48.386;11.738;2023-08-21T00:03:20;8.47;;;6.70;;
48040;SDS011;33815;48.386;11.738;2023-08-21T00:05:46;9.45;;;8.43;;
48040;SDS011;33815;48.386;11.738;2023-08-21T00:08:11;10.18;;;7.68;;
48040;SDS011;33815;48.386;11.738;2023-08-21T00:10:40;12.23;;;8.37;;
48040;SDS011;33815;48.386;11.738;2023-08-21T00:13:06;8.57;;;7.78;;
48040;SDS011;33815;48.386;11.738;2023-08-21T00:15:31;8.73;;;7.63;;
48040;SDS011;33815;48.386;11.738;2023-08-21T00:17:57;8.77;;;7.97;;
48040;SDS011;33815;48.386;11.738;2023-08-21T00:20:22;9.20;;;7.60;;
48040;SDS011;33815;48.386;11.738;2023-08-21T00:22:47;9.00;;;7.80;;
48040;SDS011;33815;48.386;11.738;2023-08-21T00:25:13;12.53;;;8.73;;
48040;SDS011;33815;48.386;11.738;2023-08-21T00:27:38;10.00;;;7.85;;
48040;SDS011;33815;48.386;11.738;2023-08-21T00:30:03;9.50;;;7.93;;
48040;SDS011;33815;48.386;11.738;2023-08-21T00:32:29;13.50;;;8.15;;
48040;SDS011;33815;48.386;11.738;2023-08-21T00:34:54;14.07;;;8.23;;
48040;SDS011;33815;48.386;11.738;2023-08-21T00:37:19;11.57;;;8.50;;
48040;SDS011;33815;48.386;11.738;2023-08-21T00:39:45;12.27;;;8.43;;
48040;SDS011;33815;48.386;11.738;2023-08-21T00:42:10;10.57;;;8.35;;
48040;SDS011;33815;48.386;11.738;2023-08-21T00:44:35;15.90;;;8.45;;
48040;SDS011;33815;48.386;11.738;2023-08-21T00:47:01;9.18;;;8.10;;
48040;SDS011;33815;48.386;11.738;2023-08-21T00:49:26;10.15;;;7.97;;
48040;SDS011;33815;48.386;11.738;2023-08-21T00:51:52;13.00;;;8.68;;
48040;SDS011;33815;48.386;11.738;2023-08-21T00:54:18;9.70;;;7.63;;
48040;SDS011;33815;48.386;11.738;2023-08-21T00:56:44;9.25;;;8.32;;
48040;SDS011;33815;48.386;11.738;2023-08-21T00:59:10;10.88;;;7.80;;
48040;SDS011;33815;48.386;11.738;2023-08-21T01:01:35;8.65;;;7.45;;
48040;SDS011;33815;48.386;11.738;2023-08-21T01:04:02;17.67;;;9.30;;
48040;SDS011;33815;48.386;11.738;2023-08-21T01:06:28;11.52;;;8.05;;
48040;SDS011;33815;48.386;11.738;2023-08-21T01:09:00;10.45;;;8.55;;
48040;SDS011;33815;48.386;11.738;2023-08-21T01:14:28;10.68;;;9.18;;
48040;SDS011;33815;48.386;11.738;2023-08-21T01:17:13;11.00;;;8.98;;
48040;SDS011;33815;48.386;11.738;2023-08-21T01:19:43;9.65;;;8.65;;
48040;SDS011;33815;48.386;11.738;2023-08-21T01:22:10;9.63;;;8.20;;
48040;SDS011;33815;48.386;11.738;2023-08-21T01:24:36;8.93;;;8.00;;
48040;SDS011;33815;48.386;11.738;2023-08-21T01:27:02;8.90;;;7.63;;
48040;SDS011;33815;48.386;11.738;2023-08-21T01:29:27;9.77;;;8.77;;
48040;SDS011;33815;48.386;11.738;2023-08-21T01:34:33;9.32;;;8.35;;
48040;SDS011;33815;48.386;11.738;2023-08-21T01:37:00;8.38;;;7.47;;
48040;SDS011;33815;48.386;11.738;2023-08-21T01:39:26;8.88;;;7.97;;
48040;SDS011;33815;48.386;11.738;2023-08-21T01:41:52;8.98;;;8.00;;
48040;SDS011;33815;48.386;11.738;2023-08-21T01:44:17;10.45;;;8.43;;
48040;SDS011;33815;48.386;11.738;2023-08-21T01:46:43;10.48;;;8.35;;
48040;SDS011;33815;48.386;11.738;2023-08-21T01:49:08;12.57;;;8.67;;
48040;SDS011;33815;48.386;11.738;2023-08-21T01:51:34;8.57;;;7.68;;
48040;SDS011;33815;48.386;11.738;2023-08-21T01:53:59;11.38;;;8.25;;
48040;SDS011;33815;48.386;11.738;2023-08-21T01:56:24;10.17;;;8.63;;
48040;SDS011;33815;48.386;11.738;2023-08-21T01:58:50;12.60;;;8.70;;
48040;SDS011;33815;48.386;11.738;2023-08-21T02:01:16;11.57;;;8.25;;
48040;SDS011;33815;48.386;11.738;2023-08-21T02:03:43;13.30;;;8.57;;
48040;SDS011;33815;48.386;11.738;2023-08-21T02:06:08;10.43;;;8.55;;
48040;SDS011;33815;48.386;11.738;2023-08-21T02:08:33;11.27;;;8.45;;
48040;SDS011;33815;48.386;11.738;2023-08-21T02:10:59;10.32;;;8.23;;
48040;SDS011;33815;48.386;11.738;2023-08-21T02:13:24;9.15;;;8.25;;
48040;SDS011;33815;48.386;11.738;2023-08-21T02:15:50;11.70;;;8.13;;
48040;SDS011;33815;48.386;11.738;2023-08-21T02:18:15;10.77;;;9.65;;
48040;SDS011;33815;48.386;11.738;2023-08-21T02:20:41;13.05;;;8.80;;
48040;SDS011;33815;48.386;11.738;2023-08-21T02:23:07;12.13;;;8.82;;
48040;SDS011;33815;48.386;11.738;2023-08-21T02:25:32;9.10;;;8.18;;
48040;SDS011;33815;48.386;11.738;2023-08-21T02:27:58;11.38;;;8.30;;
48040;SDS011;33815;48.386;11.738;2023-08-21T02:30:23;12.57;;;7.97;;
48040;SDS011;33815;48.386;11.738;2023-08-21T02:32:53;9.98;;;8.20;;
48040;SDS011;33815;48.386;11.738;2023-08-21T02:35:22;9.95;;;8.20;;
48040;SDS011;33815;48.386;11.738;2023-08-21T02:37:49;11.70;;;9.40;;
48040;SDS011;33815;48.386;11.738;2023-08-21T02:40:14;9.80;;;8.80;;
48040;SDS011;33815;48.386;11.738;2023-08-21T02:42:39;11.20;;;8.90;;
48040;SDS011;33815;48.386;11.738;2023-08-21T02:45:05;11.17;;;9.10;;
48040;SDS011;33815;48.386;11.738;2023-08-21T02:47:37;13.10;;;10.07;;
48040;SDS011;33815;48.386;11.738;2023-08-21T02:50:03;12.43;;;9.75;;
48040;SDS011;33815;48.386;11.738;2023-08-21T02:52:29;11.57;;;8.25;;
48040;SDS011;33815;48.386;11.738;2023-08-21T02:54:54;10.70;;;9.15;;
48040;SDS011;33815;48.386;11.738;2023-08-21T02:57:20;9.97;;;8.60;;
48040;SDS011;33815;48.386;11.738;2023-08-21T02:59:45;12.27;;;8.50;;
48040;SDS011;33815;48.386;11.738;2023-08-21T03:02:10;12.60;;;9.00;;
48040;SDS011;33815;48.386;11.738;2023-08-21T03:04:36;10.95;;;8.52;;
48040;SDS011;33815;48.386;11.738;2023-08-21T03:07:01;14.18;;;8.75;;
48040;SDS011;33815;48.386;11.738;2023-08-21T03:09:26;10.57;;;8.65;;
48040;SDS011;33815;48.386;11.738;2023-08-21T03:11:52;12.50;;;9.25;;
48040;SDS011;33815;48.386;11.738;2023-08-21T03:14:17;11.65;;;9.07;;
48040;SDS011;33815;48.386;11.738;2023-08-21T03:16:42;10.65;;;9.35;;
48040;SDS011;33815;48.386;11.738;2023-08-21T03:19:08;13.77;;;9.43;;
48040;SDS011;33815;48.386;11.738;2023-08-21T03:21:34;10.52;;;8.07;;
48040;SDS011;33815;48.386;11.738;2023-08-21T03:24:00;11.57;;;9.07;;
48040;SDS011;33815;48.386;11.738;2023-08-21T03:26:26;14.13;;;9.77;;
48040;SDS011;33815;48.386;11.738;2023-08-21T03:28:52;9.38;;;8.18;;
48040;SDS011;33815;48.386;11.738;2023-08-21T03:31:17;11.35;;;9.75;;
48040;SDS011;33815;48.386;11.738;2023-08-21T03:33:42;12.55;;;9.68;;
48040;SDS011;33815;48.386;11.738;2023-08-21T03:36:07;10.65;;;9.23;;
48040;SDS011;33815;48.386;11.738;2023-08-21T03:38:33;10.77;;;9.68;;
48040;SDS011;33815;48.386;11.738;2023-08-21T03:40:59;10.25;;;8.73;;
48040;SDS011;33815;48.386;11.738;2023-08-21T03:43:25;12.48;;;8.93;;
48040;SDS011;33815;48.386;11.738;2023-08-21T03:45:51;11.77;;;8.95;;
48040;SDS011;33815;48.386;11.738;2023-08-21T03:48:16;11.07;;;8.88;;
48040;SDS011;33815;48.386;11.738;2023-08-21T03:50:41;10.90;;;9.50;;
48040;SDS011;33815;48.386;11.738;2023-08-21T03:53:08;13.80;;;10.43;;
48040;SDS011;33815;48.386;11.738;2023-08-21T03:55:33;13.30;;;9.83;;
48040;SDS011;33815;48.386;11.738;2023-08-21T03:57:59;11.05;;;9.27;;
48040;SDS011;33815;48.386;11.738;2023-08-21T04:00:25;11.90;;;9.73;;
48040;SDS011;33815;48.386;11.738;2023-08-21T04:02:51;15.30;;;9.40;;
48040;SDS011;33815;48.386;11.738;2023-08-21T04:05:16;16.53;;;13.23;;
48040;SDS011;33815;48.386;11.738;2023-08-21T04:07:41;24.70;;;14.83;;
48040;SDS011;33815;48.386;11.738;2023-08-21T04:10:06;15.43;;;13.77;;
48040;SDS011;33815;48.386;11.738;2023-08-21T04:12:32;18.48;;;12.02;;
48040;SDS011;33815;48.386;11.738;2023-08-21T04:14:57;17.77;;;12.55;;
48040;SDS011;33815;48.386;11.738;2023-08-21T04:17:23;11.65;;;9.88;;
48040;SDS011;33815;48.386;11.738;2023-08-21T04:19:49;15.02;;;10.90;;
48040;SDS011;33815;48.386;11.738;2023-08-21T04:22:15;13.55;;;9.98;;
48040;SDS011;33815;48.386;11.738;2023-08-21T04:24:40;9.90;;;8.98;;
48040;SDS011;33815;48.386;11.738;2023-08-21T04:27:06;11.27;;;9.35;;
48040;SDS011;33815;48.386;11.738;2023-08-21T04:29:31;11.68;;;9.23;;
48040;SDS011;33815;48.386;11.738;2023-08-21T04:31:57;14.80;;;10.32;;
48040;SDS011;33815;48.386;11.738;2023-08-21T04:34:22;10.60;;;8.63;;
48040;SDS011;33815;48.386;11.738;2023-08-21T04:36:47;13.75;;;10.45;;
48040;SDS011;33815;48.386;11.738;2023-08-21T04:39:14;14.70;;;10.93;;
48040;SDS011;33815;48.386;11.738;2023-08-21T04:41:40;11.93;;;9.30;;
48040;SDS011;33815;48.386;11.738;2023-08-21T04:44:06;8.98;;;8.07;;
48040;SDS011;33815;48.386;11.738;2023-08-21T04:46:32;15.02;;;9.88;;
48040;SDS011;33815;48.386;11.738;2023-08-21T04:48:57;13.93;;;10.63;;
48040;SDS011;33815;48.386;11.738;2023-08-21T04:51:22;12.20;;;9.75;;
48040;SDS011;33815;48.386;11.738;2023-08-21T04:53:48;10.50;;;8.82;;
48040;SDS011;33815;48.386;11.738;2023-08-21T04:56:13;13.25;;;10.50;;
48040;SDS011;33815;48.386;11.738;2023-08-21T04:58:39;10.32;;;9.05;;
48040;SDS011;33815;48.386;11.738;2023-08-21T05:01:04;12.77;;;8.77;;
48040;SDS011;33815;48.386;11.738;2023-08-21T05:03:31;11.07;;;9.43;;
48040;SDS011;33815;48.386;11.738;2023-08-21T05:05:56;13.43;;;9.05;;
48040;SDS011;33815;48.386;11.738;2023-08-21T05:08:25;11.88;;;9.38;;
48040;SDS011;33815;48.386;11.738;2023-08-21T05:10:55;10.55;;;9.25;;
48040;SDS011;33815;48.386;11.738;2023-08-21T05:13:21;12.55;;;10.80;;
48040;SDS011;33815;48.386;11.738;2023-08-21T05:15:54;14.52;;;9.30;;
48040;SDS011;33815;48.386;11.738;2023-08-21T05:18:21;11.75;;;9.55;;
48040;SDS011;33815;48.386;11.738;2023-08-21T05:20:48;13.43;;;9.43;;
48040;SDS011;33815;48.386;11.738;2023-08-21T05:23:14;11.40;;;9.50;;
48040;SDS011;33815;48.386;11.738;2023-08-21T05:25:40;14.25;;;10.48;;
48040;SDS011;33815;48.386;11.738;2023-08-21T05:28:06;11.77;;;10.57;;
48040;SDS011;33815;48.386;11.738;2023-08-21T05:30:32;13.98;;;10.75;;
48040;SDS011;33815;48.386;11.738;2023-08-21T05:32:57;12.65;;;10.43;;
48040;SDS011;33815;48.386;11.738;2023-08-21T05:35:22;12.85;;;10.68;;
48040;SDS011;33815;48.386;11.738;2023-08-21T05:37:48;12.55;;;10.90;;
48040;SDS011;33815;48.386;11.738;2023-08-21T05:40:13;12.50;;;10.20;;
48040;SDS011;33815;48.386;11.738;2023-08-21T05:42:39;12.35;;;10.27;;
48040;SDS011;33815;48.386;11.738;2023-08-21T05:45:05;13.80;;;10.75;;
48040;SDS011;33815;48.386;11.738;2023-08-21T05:47:30;15.38;;;10.15;;
48040;SDS011;33815;48.386;11.738;2023-08-21T05:49:56;11.48;;;10.27;;
48040;SDS011;33815;48.386;11.738;2023-08-21T05:52:21;14.15;;;10.35;;
48040;SDS011;33815;48.386;11.738;2023-08-21T05:54:47;14.95;;;11.77;;
48040;SDS011;33815;48.386;11.738;2023-08-21T05:57:13;12.85;;;10.50;;
48040;SDS011;33815;48.386;11.738;2023-08-21T05:59:43;15.75;;;12.73;;
48040;SDS011;33815;48.386;11.738;2023-08-21T06:02:09;21.80;;;14.73;;
48040;SDS011;33815;48.386;11.738;2023-08-21T06:04:35;17.10;;;13.98;;
48040;SDS011;33815;48.386;11.738;2023-08-21T06:07:00;17.47;;;15.03;;
48040;SDS011;33815;48.386;11.738;2023-08-21T06:09:26;19.52;;;14.75;;
48040;SDS011;33815;48.386;11.738;2023-08-21T06:11:54;20.38;;;14.30;;
48040;SDS011;33815;48.386;11.738;2023-08-21T06:14:20;18.95;;;14.27;;
48040;SDS011;33815;48.386;11.738;2023-08-21T06:16:53;15.35;;;13.48;;
48040;SDS011;33815;48.386;11.738;2023-08-21T06:19:18;22.20;;;14.50;;
48040;SDS011;33815;48.386;11.738;2023-08-21T06:21:44;20.07;;;14.03;;
48040;SDS011;33815;48.386;11.738;2023-08-21T06:24:09;17.67;;;14.35;;
48040;SDS011;33815;48.386;11.738;2023-08-21T06:26:34;15.52;;;13.85;;
48040;SDS011;33815;48.386;11.738;2023-08-21T06:29:00;18.42;;;13.60;;
48040;SDS011;33815;48.386;11.738;2023-08-21T06:31:27;16.15;;;14.48;;
48040;SDS011;33815;48.386;11.738;2023-08-21T06:33:52;20.23;;;13.77;;
48040;SDS011;33815;48.386;11.738;2023-08-21T06:36:18;17.65;;;13.65;;
48040;SDS011;33815;48.386;11.738;2023-08-21T06:38:43;17.77;;;14.17;;
48040;SDS011;33815;48.386;11.738;2023-08-21T06:41:09;13.40;;;12.00;;
48040;SDS011;33815;48.386;11.738;2023-08-21T06:43:34;15.25;;;12.20;;
48040;SDS011;33815;48.386;11.738;2023-08-21T06:46:00;16.88;;;14.52;;
48040;SDS011;33815;48.386;11.738;2023-08-21T06:48:27;16.30;;;13.93;;
48040;SDS011;33815;48.386;11.738;2023-08-21T06:50:52;16.47;;;12.47;;
48040;SDS011;33815;48.386;11.738;2023-08-21T06:53:17;17.03;;;14.37;;
48040;SDS011;33815;48.386;11.738;2023-08-21T06:55:44;19.27;;;13.27;;
48040;SDS011;33815;48.386;11.738;2023-08-21T06:58:10;17.88;;;13.27;;
48040;SDS011;33815;48.386;11.738;2023-08-21T07:00:37;14.95;;;13.32;;
48040;SDS011;33815;48.386;11.738;2023-08-21T07:03:03;21.40;;;14.55;;
48040;SDS011;33815;48.386;11.738;2023-08-21T07:05:32;16.27;;;13.40;;
48040;SDS011;33815;48.386;11.738;2023-08-21T07:07:57;14.45;;;12.90;;
48040;SDS011;33815;48.386;11.738;2023-08-21T07:10:22;17.80;;;14.48;;
48040;SDS011;33815;48.386;11.738;2023-08-21T07:12:48;18.17;;;13.10;;
48040;SDS011;33815;48.386;11.738;2023-08-21T07:15:13;14.60;;;13.20;;
48040;SDS011;33815;48.386;11.738;2023-08-21T07:17:39;20.63;;;14.23;;
48040;SDS011;33815;48.386;11.738;2023-08-21T07:20:04;18.77;;;12.93;;
48040;SDS011;33815;48.386;11.738;2023-08-21T07:22:30;18.15;;;13.80;;
48040;SDS011;33815;48.386;11.738;2023-08-21T07:24:59;18.02;;;11.85;;
48040;SDS011;33815;48.386;11.738;2023-08-21T07:27:28;16.15;;;12.13;;
48040;SDS011;33815;48.386;11.738;2023-08-21T07:29:55;13.80;;;11.38;;
48040;SDS011;33815;48.386;11.738;2023-08-21T07:32:20;15.30;;;11.38;;
48040;SDS011;33815;48.386;11.738;2023-08-21T07:34:45;13.23;;;10.93;;
48040;SDS011;33815;48.386;11.738;2023-08-21T07:37:11;17.08;;;11.13;;
48040;SDS011;33815;48.386;11.738;2023-08-21T07:39:36;12.17;;;9.90;;
48040;SDS011;33815;48.386;11.738;2023-08-21T07:42:03;14.30;;;11.23;;
48040;SDS011;33815;48.386;11.738;2023-08-21T07:44:28;13.98;;;10.38;;
48040;SDS011;33815;48.386;11.738;2023-08-21T07:46:53;10.53;;;9.53;;
48040;SDS011;33815;48.386;11.738;2023-08-21T07:49:19;12.82;;;10.55;;
48040;SDS011;33815;48.386;11.738;2023-08-21T07:51:44;10.83;;;9.67;;
48040;SDS011;33815;48.386;11.738;2023-08-21T07:54:09;11.13;;;7.97;;
48040;SDS011;33815;48.386;11.738;2023-08-21T07:56:34;9.80;;;8.30;;
48040;SDS011;33815;48.386;11.738;2023-08-21T07:59:01;13.35;;;9.52;;
48040;SDS011;33815;48.386;11.738;2023-08-21T08:01:27;12.98;;;9.02;;
48040;SDS011;33815;48.386;11.738;2023-08-21T08:03:52;10.30;;;8.30;;
48040;SDS011;33815;48.386;11.738;2023-08-21T08:06:18;13.52;;;8.20;;
48040;SDS011;33815;48.386;11.738;2023-08-21T08:08:44;12.02;;;7.28;;
48040;SDS011;33815;48.386;11.738;2023-08-21T08:11:09;8.95;;;7.45;;
48040;SDS011;33815;48.386;11.738;2023-08-21T08:13:35;17.63;;;8.73;;
48040;SDS011;33815;48.386;11.738;2023-08-21T08:16:01;8.95;;;6.80;;
48040;SDS011;33815;48.386;11.738;2023-08-21T08:18:27;8.93;;;7.68;;
48040;SDS011;33815;48.386;11.738;2023-08-21T08:20:52;9.25;;;7.93;;
48040;SDS011;33815;48.386;11.738;2023-08-21T08:23:19;8.50;;;6.50;;
48040;SDS011;33815;48.386;11.738;2023-08-21T08:25:44;11.77;;;7.72;;
48040;SDS011;33815;48.386;11.738;2023-08-21T08:28:09;14.93;;;7.63;;
48040;SDS011;33815;48.386;11.738;2023-08-21T08:30:35;9.83;;;6.97;;
48040;SDS011;33815;48.386;11.738;2023-08-21T08:33:00;7.85;;;6.57;;
48040;SDS011;33815;48.386;11.738;2023-08-21T08:35:25;7.43;;;6.63;;
48040;SDS011;33815;48.386;11.738;2023-08-21T08:37:51;11.75;;;6.60;;
48040;SDS011;33815;48.386;11.738;2023-08-21T08:40:16;7.47;;;6.27;;
48040;SDS011;33815;48.386;11.738;2023-08-21T08:42:42;9.43;;;6.57;;
48040;SDS011;33815;48.386;11.738;2023-08-21T08:45:07;9.20;;;6.00;;
48040;SDS011;33815;48.386;11.738;2023-08-21T08:47:35;9.70;;;6.05;;
48040;SDS011;33815;48.386;11.738;2023-08-21T08:50:02;6.32;;;5.43;;
48040;SDS011;33815;48.386;11.738;2023-08-21T08:52:30;8.13;;;6.30;;
48040;SDS011;33815;48.386;11.738;2023-08-21T08:55:00;6.43;;;5.60;;
48040;SDS011;33815;48.386;11.738;2023-08-21T08:57:25;7.55;;;6.38;;
48040;SDS011;33815;48.386;11.738;2023-08-21T08:59:52;6.93;;;5.40;;
48040;SDS011;33815;48.386;11.738;2023-08-21T09:02:19;6.55;;;5.85;;
48040;SDS011;33815;48.386;11.738;2023-08-21T09:04:44;5.53;;;5.00;;
48040;SDS011;33815;48.386;11.738;2023-08-21T09:07:10;5.82;;;5.32;;
48040;SDS011;33815;48.386;11.738;2023-08-21T09:09:37;7.18;;;5.35;;
48040;SDS011;33815;48.386;11.738;2023-08-21T09:12:08;8.23;;;5.22;;
48040;SDS011;33815;48.386;11.738;2023-08-21T09:14:38;5.65;;;5.15;;
48040;SDS011;33815;48.386;11.738;2023-08-21T09:17:05;8.45;;;5.57;;
48040;SDS011;33815;48.386;11.738;2023-08-21T09:19:30;9.60;;;5.00;;
48040;SDS011;33815;48.386;11.738;2023-08-21T09:21:56;6.63;;;5.30;;
48040;SDS011;33815;48.386;11.738;2023-08-21T09:24:21;5.93;;;5.20;;
48040;SDS011;33815;48.386;11.738;2023-08-21T09:26:47;5.80;;;5.30;;
48040;SDS011;33815;48.386;11.738;2023-08-21T09:29:17;5.90;;;4.95;;
48040;SDS011;33815;48.386;11.738;2023-08-21T09:31:43;8.13;;;6.18;;
48040;SDS011;33815;48.386;11.738;2023-08-21T09:34:10;6.35;;;5.10;;
48040;SDS011;33815;48.386;11.738;2023-08-21T09:36:36;5.38;;;4.82;;
48040;SDS011;33815;48.386;11.738;2023-08-21T09:39:04;4.90;;;4.50;;
48040;SDS011;33815;48.386;11.738;2023-08-21T09:41:31;7.13;;;5.47;;
48040;SDS011;33815;48.386;11.738;2023-08-21T09:44:00;5.07;;;4.63;;
48040;SDS011;33815;48.386;11.738;2023-08-21T09:46:28;6.00;;;5.40;;
48040;SDS011;33815;48.386;11.738;2023-08-21T09:48:54;6.07;;;5.47;;
48040;SDS011;33815;48.386;11.738;2023-08-21T09:51:19;8.10;;;5.60;;
48040;SDS011;33815;48.386;11.738;2023-08-21T09:53:46;7.05;;;6.15;;
48040;SDS011;33815;48.386;11.738;2023-08-21T09:56:13;7.53;;;5.18;;
48040;SDS011;33815;48.386;11.738;2023-08-21T09:58:39;4.88;;;4.47;;
48040;SDS011;33815;48.386;11.738;2023-08-21T10:01:05;6.15;;;5.55;;
48040;SDS011;33815;48.386;11.738;2023-08-21T10:03:40;5.45;;;4.95;;
48040;SDS011;33815;48.386;11.738;2023-08-21T10:06:08;6.82;;;5.45;;
48040;SDS011;33815;48.386;11.738;2023-08-21T10:08:36;5.75;;;5.13;;
48040;SDS011;33815;48.386;11.738;2023-08-21T10:11:07;7.65;;;5.18;;
48040;SDS011;33815;48.386;11.738;2023-08-21T10:13:33;6.55;;;5.25;;
48040;SDS011;33815;48.386;11.738;2023-08-21T10:16:01;7.15;;;4.78;;
48040;SDS011;33815;48.386;11.738;2023-08-21T10:18:30;5.00;;;4.60;;
48040;SDS011;33815;48.386;11.738;2023-08-21T10:23:41;4.80;;;4.28;;
48040;SDS011;33815;48.386;11.738;2023-08-21T10:26:07;5.05;;;4.38;;
48040;SDS011;33815;48.386;11.738;2023-08-21T10:31:30;4.45;;;4.10;;
48040;SDS011;33815;48.386;11.738;2023-08-21T10:34:09;5.00;;;4.22;;
48040;SDS011;33815;48.386;11.738;2023-08-21T10:36:41;5.07;;;3.75;;
48040;SDS011;33815;48.386;11.738;2023-08-21T10:39:25;4.35;;;3.95;;
48040;SDS011;33815;48.386;11.738;2023-08-21T10:41:55;5.00;;;4.43;;
48040;SDS011;33815;48.386;11.738;2023-08-21T10:44:38;4.68;;;4.18;;
48040;SDS011;33815;48.386;11.738;2023-08-21T10:47:30;4.50;;;3.85;;
48040;SDS011;33815;48.386;11.738;2023-08-21T10:50:03;5.95;;;4.05;;
48040;SDS011;33815;48.386;11.738;2023-08-21T10:52:37;4.93;;;4.43;;
48040;SDS011;33815;48.386;11.738;2023-08-21T10:55:05;4.22;;;3.85;;
48040;SDS011;33815;48.386;11.738;2023-08-21T10:57:32;4.35;;;3.92;;
48040;SDS011;33815;48.386;11.738;2023-08-21T10:59:59;4.38;;;3.97;;
48040;SDS011;33815;48.386;11.738;2023-08-21T11:02:30;5.22;;;4.55;;
48040;SDS011;33815;48.386;11.738;2023-08-21T11:04:57;4.53;;;3.97;;
48040;SDS011;33815;48.386;11.738;2023-08-21T11:07:23;3.80;;;3.42;;
48040;SDS011;33815;48.386;11.738;2023-08-21T11:09:49;4.03;;;3.67;;
48040;SDS011;33815;48.386;11.738;2023-08-21T11:12:16;5.47;;;4.25;;
48040;SDS011;33815;48.386;11.738;2023-08-21T11:14:43;4.65;;;3.75;;
48040;SDS011;33815;48.386;11.738;2023-08-21T11:17:09;6.55;;;3.80;;
48040;SDS011;33815;48.386;11.738;2023-08-21T11:19:35;7.18;;;4.30;;
48040;SDS011;33815;48.386;11.738;2023-08-21T11:22:02;4.63;;;4.22;;
48040;SDS011;33815;48.386;11.738;2023-08-21T11:27:02;6.40;;;4.30;;
48040;SDS011;33815;48.386;11.738;2023-08-21T11:29:37;4.93;;;4.10;;
48040;SDS011;33815;48.386;11.738;2023-08-21T11:32:08;4.28;;;3.85;;
48040;SDS011;33815;48.386;11.738;2023-08-21T11:34:38;5.28;;;3.63;;
48040;SDS011;33815;48.386;11.738;2023-08-21T11:37:04;4.80;;;3.90;;
48040;SDS011;33815;48.386;11.738;2023-08-21T11:39:43;3.05;;;2.85;;
48040;SDS011;33815;48.386;11.738;2023-08-21T11:42:19;4.82;;;2.85;;
48040;SDS011;33815;48.386;11.738;2023-08-21T11:44:47;3.53;;;3.00;;
48040;SDS011;33815;48.386;11.738;2023-08-21T11:47:15;3.70;;;3.33;;
48040;SDS011;33815;48.386;11.738;2023-08-21T11:49:43;4.47;;;3.50;;
48040;SDS011;33815;48.386;11.738;2023-08-21T11:52:13;2.85;;;2.65;;
48040;SDS011;33815;48.386;11.738;2023-08-21T11:54:42;5.70;;;2.95;;
48040;SDS011;33815;48.386;11.738;2023-08-21T11:57:08;3.67;;;3.37;;
48040;SDS011;33815;48.386;11.738;2023-08-21T11:59:37;4.57;;;3.17;;
48040;SDS011;33815;48.386;11.738;2023-08-21T12:02:07;6.07;;;3.17;;
48040;SDS011;33815;48.386;11.738;2023-08-21T12:04:39;3.30;;;2.85;;
48040;SDS011;33815;48.386;11.738;2023-08-21T12:07:08;7.78;;;3.10;;
48040;SDS011;33815;48.386;11.738;2023-08-21T12:09:37;5.03;;;2.80;;
48040;SDS011;33815;48.386;11.738;2023-08-21T12:12:02;3.67;;;3.17;;
48040;SDS011;33815;48.386;11.738;2023-08-21T12:14:28;3.83;;;3.53;;
48040;SDS011;33815;48.386;11.738;2023-08-21T12:16:54;4.70;;;3.33;;
48040;SDS011;33815;48.386;11.738;2023-08-21T12:19:21;4.43;;;3.38;;
48040;SDS011;33815;48.386;11.738;2023-08-21T12:21:48;3.50;;;3.17;;
48040;SDS011;33815;48.386;11.738;2023-08-21T12:24:13;3.13;;;2.83;;
48040;SDS011;33815;48.386;11.738;2023-08-21T12:26:38;3.30;;;3.10;;
48040;SDS011;33815;48.386;11.738;2023-08-21T12:29:04;3.40;;;3.07;;
48040;SDS011;33815;48.386;11.738;2023-08-21T12:31:29;6.07;;;3.20;;
48040;SDS011;33815;48.386;11.738;2023-08-21T12:33:55;5.60;;;3.28;;
48040;SDS011;33815;48.386;11.738;2023-08-21T12:36:21;4.15;;;2.92;;
48040;SDS011;33815;48.386;11.738;2023-08-21T12:38:46;3.60;;;3.30;;
48040;SDS011;33815;48.386;11.738;2023-08-21T12:41:12;3.53;;;3.07;;
48040;SDS011;33815;48.386;11.738;2023-08-21T12:43:37;4.10;;;3.13;;
48040;SDS011;33815;48.386;11.738;2023-08-21T12:46:02;6.37;;;3.17;;
48040;SDS011;33815;48.386;11.738;2023-08-21T12:48:29;3.65;;;3.17;;
48040;SDS011;33815;48.386;11.738;2023-08-21T12:50:54;3.83;;;3.50;;
48040;SDS011;33815;48.386;11.738;2023-08-21T12:53:19;4.63;;;3.10;;
48040;SDS011;33815;48.386;11.738;2023-08-21T12:55:45;3.13;;;2.83;;
48040;SDS011;33815;48.386;11.738;2023-08-21T12:58:10;3.93;;;3.10;;
48040;SDS011;33815;48.386;11.738;2023-08-21T13:00:38;3.50;;;2.47;;
48040;SDS011;33815;48.386;11.738;2023-08-21T13:03:04;3.65;;;3.00;;
48040;SDS011;33815;48.386;11.738;2023-08-21T13:05:29;3.35;;;2.95;;
48040;SDS011;33815;48.386;11.738;2023-08-21T13:07:54;4.97;;;2.97;;
48040;SDS011;33815;48.386;11.738;2023-08-21T13:10:19;6.57;;;3.13;;
48040;SDS011;33815;48.386;11.738;2023-08-21T13:12:45;3.42;;;3.20;;
48040;SDS011;33815;48.386;11.738;2023-08-21T13:15:12;3.22;;;2.88;;
48040;SDS011;33815;48.386;11.738;2023-08-21T13:17:37;2.90;;;2.70;;
48040;SDS011;33815;48.386;11.738;2023-08-21T13:20:02;4.23;;;3.07;;
48040;SDS011;33815;48.386;11.738;2023-08-21T13:22:28;4.22;;;3.20;;
48040;SDS011;33815;48.386;11.738;2023-08-21T13:24:54;4.97;;;3.10;;
48040;SDS011;33815;48.386;11.738;2023-08-21T13:27:19;3.40;;;3.05;;
48040;SDS011;33815;48.386;11.738;2023-08-21T13:29:45;4.32;;;2.60;;
48040;SDS011;33815;48.386;11.738;2023-08-21T13:32:11;4.13;;;3.40;;
48040;SDS011;33815;48.386;11.738;2023-08-21T13:34:36;4.63;;;2.90;;
48040;SDS011;33815;48.386;11.738;2023-08-21T13:37:02;5.20;;;2.87;;
48040;SDS011;33815;48.386;11.738;2023-08-21T13:39:28;4.72;;;2.30;;
48040;SDS011;33815;48.386;11.738;2023-08-21T13:41:54;3.10;;;2.60;;
48040;SDS011;33815;48.386;11.738;2023-08-21T13:44:20;4.50;;;2.30;;
48040;SDS011;33815;48.386;11.738;2023-08-21T13:46:45;3.38;;;2.95;;
48040;SDS011;33815;48.386;11.738;2023-08-21T13:49:11;3.03;;;2.80;;
48040;SDS011;33815;48.386;11.738;2023-08-21T13:51:36;4.53;;;3.20;;
48040;SDS011;33815;48.386;11.738;2023-08-21T13:54:01;2.80;;;2.60;;
48040;SDS011;33815;48.386;11.738;2023-08-21T13:56:27;2.55;;;2.40;;
48040;SDS011;33815;48.386;11.738;2023-08-21T13:58:52;11.20;;;2.93;;
48040;SDS011;33815;48.386;11.738;2023-08-21T14:01:17;6.83;;;2.57;;
48040;SDS011;33815;48.386;11.738;2023-08-21T14:03:42;6.30;;;3.00;;
48040;SDS011;33815;48.386;11.738;2023-08-21T14:06:08;2.40;;;2.20;;
48040;SDS011;33815;48.386;11.738;2023-08-21T14:08:36;3.03;;;2.47;;
48040;SDS011;33815;48.386;11.738;2023-08-21T14:11:02;4.18;;;3.05;;
48040;SDS011;33815;48.386;11.738;2023-08-21T14:13:27;3.10;;;2.47;;
48040;SDS011;33815;48.386;11.738;2023-08-21T14:15:52;4.37;;;2.87;;
48040;SDS011;33815;48.386;11.738;2023-08-21T14:18:18;5.60;;;2.57;;
48040;SDS011;33815;48.386;11.738;2023-08-21T14:20:44;2.95;;;2.67;;
48040;SDS011;33815;48.386;11.738;2023-08-21T14:23:10;3.40;;;2.50;;
48040;SDS011;33815;48.386;11.738;2023-08-21T14:25:35;4.80;;;3.20;;
48040;SDS011;33815;48.386;11.738;2023-08-21T14:28:02;3.03;;;2.72;;
48040;SDS011;33815;48.386;11.738;2023-08-21T14:30:28;5.82;;;2.63;;
48040;SDS011;33815;48.386;11.738;2023-08-21T14:32:53;7.03;;;3.00;;
48040;SDS011;33815;48.386;11.738;2023-08-21T14:35:19;4.33;;;3.43;;